• Join FlightAware (Why Join?)
  • Login
  • US Flag 
06:50AM EDT


 

Airport Tracker/Info


-or-


 

Live Flight TrackerFlight Track Log ✈ UAL6118 ✈ 07-May-2013 ✈ KSTL - KDEN

Flight Track Log - Related Links

Times and Time Zones

All times are in EDT time to prevent confusion due to time zone crossing. See the UAL6118 flight status page for this flight to view local times or setup timezone preferences in your user account.

Time Position Orientation Groundspeed Altitude Reporting Facility
EDT Latitude Longitude Course Direction KTS MPH feet Rate Location/Type
12:16PM 38.7667 -90.4167 293° West 164 189 1,200  Level Gateway (St. Louis) TRACON
12:17PM 38.7939 -90.4989 293° West 209 241 4,100 2,160 Climbing Kansas City Center
12:18PM 38.8167 -90.5822 289° West 252 290 6,400 2,760 Climbing Kansas City Center
12:19PM 38.8456 -90.6906 289° West 269 310 9,900 2,400 Climbing Kansas City Center
12:20PM 38.8711 -90.7875 289° West 288 331 11,400 1,320 Climbing Kansas City Center
12:21PM 38.9014 -90.9031 289° West 340 391 12,700 1,320 Climbing Kansas City Center
12:22PM 38.9333 -91.0247 289° West 360 414 14,200 1,500 Climbing Kansas City Center
12:23PM 38.9661 -91.1506 289° West 371 427 15,800 1,500 Climbing Kansas City Center
12:24PM 38.9869 -91.2842 281° West 381 438 17,300 1,560 Climbing Kansas City Center
12:25PM 39.0111 -91.4436 281° West 380 437 19,100 1,740 Climbing Kansas City Center
12:26PM 39.0314 -91.5769 281° West 382 440 20,900 1,740 Climbing Kansas City Center
12:28PM 39.0511 -91.7075 281° West 375 432 22,700 1,740 Climbing Kansas City Center
12:29PM 39.0706 -91.8375 281° West 372 428 24,600 1,800 Climbing Kansas City Center
12:30PM 39.0892 -91.9658 281° West 367 422 26,500 1,860 Climbing Kansas City Center
12:31PM 39.1100 -92.1022 281° West 354 407 28,500 1,620 Climbing Kansas City Center
12:32PM 39.1217 -92.2258 277° West 351 404 29,900 1,200 Climbing Kansas City Center
12:33PM 39.1308 -92.3544 275° West 360 414 31,000 1,560 Climbing Kansas City Center
12:34PM 39.1417 -92.5036 275° West 352 405 33,200 1,500 Climbing Kansas City Center
12:35PM 39.1508 -92.6244 276° West 343 395 34,100 900 Climbing Kansas City Center
12:36PM 39.1603 -92.7478 276° West 347 399 35,100 900 Climbing Kansas City Center
12:37PM 39.1692 -92.8706 275° West 347 399 36,000 420 Climbing Kansas City Center
12:38PM 39.1772 -92.9972 275° West 355 409 36,000  Level Kansas City Center
12:39PM 39.1872 -93.1308 276° West 372 428 36,000  Level Kansas City Center
12:40PM 39.1986 -93.3014 275° West 395 455 36,000  Level Kansas City Center
12:41PM 39.2075 -93.4403 275° West 410 472 36,000  Level Kansas City Center
12:42PM 39.2189 -93.6106 275° West 423 487 36,000  Level Kansas City Center
12:43PM 39.2289 -93.7561 275° West 425 489 36,000  Level Kansas City Center
12:44PM 39.2392 -93.9269 274° West 426 490 36,000  Level Kansas City Center
12:45PM 39.2472 -94.0728 274° West 426 490 36,000  Level Kansas City Center
12:46PM 39.2533 -94.2403 273° West 420 483 36,000  Level Kansas City Center
12:47PM 39.2486 -94.3869 268° West 426 490 36,000  Level Kansas City Center
12:48PM 39.2453 -94.5569 269° West 425 489 36,000  Level Kansas City Center
12:49PM 39.2408 -94.7033 268° West 426 490 36,000  Level Kansas City Center
12:50PM 39.2361 -94.8744 268° West 435 501 36,000  Level Kansas City Center
12:51PM 39.2328 -95.0217 268° West 428 493 36,000  Level Kansas City Center
12:52PM 39.2275 -95.1867 268° West 431 496 36,000  Level Kansas City Center
12:53PM 39.2225 -95.3522 268° West 431 496 36,000  Level Kansas City Center
12:54PM 39.2183 -95.5019 268° West 432 497 36,000  Level Kansas City Center
12:55PM 39.2136 -95.6492 268° West 430 495 36,000  Level Kansas City Center
12:56PM 39.2078 -95.8206 268° West 429 494 36,000  Level Kansas City Center
12:58PM 39.2022 -95.9675 267° West 429 494 36,000  Level Kansas City Center
12:59PM 39.1958 -96.1386 267° West 428 493 36,000  Level Kansas City Center
01:00PM 39.1906 -96.2858 267° West 429 494 36,000  Level Kansas City Center
01:01PM 39.1839 -96.4797 268° West 425 489 36,000  Level Kansas City Center
01:02PM 39.1758 -96.6236 266° West 421 484 36,000  Level Kansas City Center
01:03PM 39.1692 -96.7928 267° West 422 486 36,000  Level Kansas City Center
01:04PM 39.1647 -96.9375 268° West 423 487 36,000  Level Kansas City Center
01:05PM 39.1561 -97.1058 266° West 423 487 36,000  Level Kansas City Center
01:06PM 39.1511 -97.2517 268° West 426 490 36,000  Level Kansas City Center
01:07PM 39.1425 -97.4222 266° West 427 491 36,000  Level Kansas City Center
01:08PM 39.1353 -97.5692 266° West 429 494 36,000  Level Kansas City Center
01:09PM 39.1272 -97.7400 267° West 428 493 36,000  Level Kansas City Center
01:10PM 39.1192 -97.8969 266° West 432 497 36,000  Level Kansas City Center
01:11PM 39.1111 -98.0517 266° West 433 498 36,000  Level Kansas City Center
01:12PM 39.1025 -98.2047 266° West 433 498 36,000  Level Kansas City Center
01:13PM 39.0947 -98.3531 266° West 426 490 36,000  Level Kansas City Center
01:14PM 39.0861 -98.5044 266° West 426 490 36,000  Level Kansas City Center
01:15PM 39.0761 -98.6839 266° West 421 484 36,000  Level Kansas City Center
01:16PM 39.0669 -98.8333 266° West 421 484 36,000  Level Kansas City Center
01:17PM 39.0581 -98.9825 266° West 420 483 36,000  Level Kansas City Center
01:18PM 39.0492 -99.1319 266° West 420 483 36,000  Level Kansas City Center
01:19PM 39.0378 -99.2961 265° West 421 484 36,000  Level Denver Center
01:20PM 39.0275 -99.4394 265° West 423 487 36,000  Level Denver Center
01:21PM 39.0164 -99.6086 265° West 424 488 36,000  Level Denver Center
01:22PM 39.0069 -99.7561 265° West 429 494 36,000  Level Denver Center
01:24PM 38.9950 -99.9269 265° West 430 495 36,000  Level Denver Center
01:25PM 38.9828 -100.0969 265° West 430 495 36,000  Level Denver Center
01:26PM 38.9708 -100.2694 265° West 433 498 36,000  Level Denver Center
01:27PM 38.9600 -100.4139 265° West 429 494 36,000  Level Denver Center
01:28PM 38.9472 -100.5831 265° West 426 490 36,000  Level Denver Center
01:29PM 38.9367 -100.7283 265° West 425 489 36,000  Level Denver Center
01:30PM 38.9236 -100.8972 264° West 427 491 36,000  Level Denver Center
01:31PM 38.9081 -101.0872 264° West 419 482 36,000  Level Denver Center
01:32PM 38.8961 -101.2275 264° West 414 476 36,000  Level Denver Center
01:33PM 38.8842 -101.3900 265° West 411 473 36,000 -360 Level Denver Center
01:34PM 38.8719 -101.5272 264° West 406 467 35,300 -840 Descending Denver Center
01:35PM 38.8617 -101.6619 264° West 399 459 34,300 -660 Descending Denver Center
01:36PM 38.8483 -101.8228 264° West 406 467 34,000 -180 Descending Denver Center
01:37PM 38.8475 -101.9617 270° West 409 471 34,000  Level Denver Center
01:39PM 38.8444 -102.1431 269° West 399 459 34,000  Level Denver Center
01:40PM 38.8417 -102.2992 269° West 393 452 34,000  Level Denver Center
01:41PM 38.8406 -102.4333 269° West 392 451 34,000  Level Denver Center
01:42PM 38.8369 -102.5911 268° West 398 458 34,000  Level Denver Center
01:43PM 38.8356 -102.7261 269° West 398 458 34,000  Level Denver Center
01:44PM 38.8914 -102.8681 297° West 402 463 34,000  Level Denver Center
01:45PM 38.9514 -102.9903 302° West 401 461 34,000 -780 Level Denver Center
01:46PM 39.0100 -103.1150 301° West 404 465 32,500 -1,740 Descending Denver Center
01:47PM 39.0694 -103.2378 302° West 402 463 30,500 -1,980 Descending Denver Center
01:48PM 39.1275 -103.3617 301° West 401 461 28,500 -2,040 Descending Denver Center
01:49PM 39.1867 -103.4861 302° West 404 465 26,300 -2,100 Descending Denver Center
01:50PM 39.2447 -103.6108 301° West 403 464 24,200 -2,280 Descending Denver Center
01:51PM 39.3089 -103.7489 301° West 384 442 21,700 -2,160 Descending Denver Center
01:52PM 39.3583 -103.8531 302° West 345 397 19,800 -1,860 Descending Denver Center
01:53PM 39.3989 -103.9569 297° West 319 367 17,900 -1,680 Descending Denver Center
01:54PM 39.4028 -104.0664 273° West 300 345 16,400 -1,500 Descending Denver Center
01:55PM 39.4064 -104.1772 272° West 286 329 14,900 -1,260 Descending Denver Center
01:56PM 39.4283 -104.2717 287° West 285 328 13,800 -1,080 Descending Denver Center
01:57PM 39.4678 -104.3558 301° West 278 320 12,800 -840 Descending Denver Center
01:58PM 39.4994 -104.4233 301° West 262 302 12,200 -840 Descending Denver Center
01:59PM 39.5439 -104.5100 304° West 238 274 11,100 -1,200 Descending Denver Center
02:00PM 39.6144 -104.5572 333° Northwest 230 265 9,500 -1,380 Descending Denver Center
02:02PM 39.6764 -104.6003 332° Northwest 233 268 8,100 -1,200 Descending Denver Center
02:03PM 39.7353 -104.6317 338° Northwest 229 264 7,100 -840 Descending Denver Center
02:04PM 39.7744 -104.6422 348° North 170 196 6,500 -840 Descending Denver Center
02:05PM 39.8261 -104.6422 360° North 152 175 5,500 -1,020 Descending Denver Center
02:07PM 39.8500 -104.6667 North  Level FlightAware Approximate
02:14PM 39.8617 -104.6732 North  Level Estimated
02:15PM 39.8617 -104.6732 North  Level Estimated
02:16PM 39.8617 -104.6732 North  Level Estimated